Borrego (687) Station Data

Red Flag Warning: No
Fire Weather Zone: 262
SDGE Region: North East
Lat/Lon: 33.263/-116.348

Observations

Time Wind Speed/Gust Temp(F) RH Fuel Moist Fuel Temp(F) Dewpt(F) Tmax(F) Tmin(F) Accum Precip 10-min Precip SL Press(mb)
2/27 11:40pm 121 2 G 7 53° 93% - - 51° 54.6° 45.9° 0.47" 0.01" 1012.0
2/27 11:20pm 210 3 G 8 53° 97% - - 52° 54.5° 45.9° 0.46" 0.01" 1012.0
2/27 11:10pm 135 2 G 7 53° 98% - - 52° 54.5° 45.9° 0.45" 0.01" 1012.0
2/27 11:00pm 101 1 G 2 53° 97% - - 52° 54.5° 45.9° 0.44" 0.02" 1012.0
2/27 10:50pm 224 2 G 5 53° 96% - - 52° 54.5° 45.9° 0.42" 0.01" 1012.0
2/27 10:40pm 344 1 G 2 53° 98% - - 53° 54.5° 45.9° 0.41" 0.01" 1011.0
2/27 10:30pm 54 2 G 4 53° 100% - - 53° 54.5° 45.9° 0.4" 0.01" 1011.0
2/27 10:20pm 296 1 G 3 53° 100% - - 53° 54.5° 45.9° 0.39" 0.0" 1011.0
2/27 10:10pm 323 2 G 3 53° 100% - - 53° 54.5° 45.9° 0.39" 0.01" 1011.0
2/27 10:00pm 186 1 G 2 53° 100% - - 53° 54.5° 45.9° 0.38" 0.0" 1011.0
2/27 9:50pm 131 1 G 2 53° 100% - - 53° 54.5° 45.9° 0.38" 0.0" 1011.0
2/27 9:40pm 137 2 G 4 53° 100% - - 53° 54.5° 45.9° 0.38" 0.01" 1011.0
2/27 9:30pm 150 1 G 4 53° 100% - - 53° 54.5° 45.9° 0.37" 0.01" 1011.0
2/27 9:20pm 150 2 G 3 53° 100% - - 53° 54.5° 45.9° 0.36" 0.0" 1011.0
2/27 9:10pm 135 2 G 3 53° 100% - - 53° 54.5° 45.9° 0.36" 0.0" 1011.0
2/27 9:00pm 155 3 G 4 53° 100% - - 53° 54.5° 45.9° 0.36" 0.01" 1011.0
2/27 8:50pm 50 1 G 2 53° 100% - - 53° 54.5° 45.9° 0.35" 0.0" 1011.0
2/27 8:40pm 330 2 G 3 53° 100% - - 53° 54.5° 45.9° 0.35" 0.0" 1011.0
2/27 8:30pm 302 2 G 4 53° 100% - - 53° 54.5° 45.9° 0.35" 0.0" 1011.0
2/27 8:20pm 275 2 G 4 53° 100% - - 53° 54.5° 45.9° 0.35" 0.0" 1011.0
2/27 8:10pm 237 3 G 6 53° 99% - - 53° 54.5° 45.9° 0.35" 0.0" 1011.0
2/27 8:00pm 166 2 G 4 53° 99% - - 53° 54.5° 45.9° 0.35" 0.0" 1011.0
2/27 7:50pm 144 2 G 4 53° 99% - - 53° 54.5° 45.9° 0.35" 0.01" 1011.0
2/27 7:40pm 201 3 G 4 53° 99% - - 53° 54.5° 45.9° 0.34" 0.0" 1011.0
2/27 7:30pm 187 3 G 5 53° 99% - - 53° 54.5° 45.9° 0.34" 0.0" 1011.0
2/27 7:20pm 204 2 G 3 53° 99% - - 53° 54.5° 45.9° 0.34" 0.0" 1011.0
2/27 7:10pm 36 2 G 5 53° 99% - - 53° 54.5° 45.9° 0.34" 0.0" 1011.0
2/27 7:00pm 27 6 G 9 53° 99% - - 53° 54.5° 45.9° 0.34" 0.0" 1011.0
2/27 6:50pm 42 6 G 8 53° 99% - - 53° 54.5° 45.9° 0.34" 0.01" 1011.0
2/27 6:40pm 236 1 G 3 53° 99% - - 53° 54.5° 45.9° 0.33" 0.0" 1012.0
2/27 6:30pm 294 1 G 3 53° 97% - - 53° 54.5° 45.9° 0.33" 0.0" 1011.0
2/27 6:20pm 195 2 G 5 53° 98% - - 53° 54.5° 45.9° 0.33" 0.0" 1011.0
2/27 6:10pm 177 4 G 5 53° 99% - - 53° 54.5° 45.9° 0.33" 0.0" 1011.0
2/27 6:00pm 184 3 G 5 53° 100% - - 53° 54.5° 45.9° 0.33" 0.0" 1011.0
2/27 5:50pm 190 2 G 4 53° 100% - - 53° 54.5° 45.9° 0.33" 0.0" 1011.0
2/27 5:40pm 227 3 G 4 53° 100% - - 53° 54.5° 45.9° 0.33" 0.0" 1011.0
2/27 5:30pm 203 2 G 4 53° 100% - - 53° 54.5° 45.9° 0.33" 0.0" 1011.0
2/27 5:20pm 185 2 G 5 53° 100% - - 53° 54.5° 45.9° 0.33" 0.0" 1011.0
2/27 5:10pm 189 3 G 5 53° 100% - - 53° 54.5° 45.9° 0.33" 0.0" 1011.0
2/27 5:00pm 268 1 G 3 53° 100% - - 53° 54.5° 45.9° 0.33" 0.0" 1011.0
2/27 4:50pm 257 1 G 2 53° 99% - - 53° 54.5° 45.9° 0.33" 0.01" 1011.0
2/27 4:40pm 303 2 G 4 53° 99% - - 53° 54.5° 45.9° 0.32" 0.0" 1011.0
2/27 4:30pm 350 2 G 4 53° 98% - - 53° 54.5° 45.9° 0.32" 0.0" 1011.0
2/27 4:20pm 35 2 G 3 53° 97% - - 52° 54.5° 45.9° 0.32" 0.0" 1011.0
2/27 4:10pm 78 3 G 4 53° 96% - - 52° 54.5° 45.9° 0.32" 0.0" 1011.0
2/27 4:00pm 105 2 G 4 53° 96% - - 52° 54.5° 45.9° 0.32" 0.01" 1011.0
2/27 3:50pm 37 2 G 3 53° 96% - - 52° 54.5° 45.9° 0.31" 0.01" 1011.0
2/27 3:40pm 90 3 G 6 53° 96% - - 52° 54.5° 45.9° 0.3" 0.0" 1011.0
2/27 3:30pm 116 3 G 4 53° 96% - - 52° 54.5° 45.9° 0.3" 0.01" 1012.0
2/27 3:20pm 131 4 G 5 53° 97% - - 52° 54.5° 45.9° 0.29" 0.01" 1012.0
2/27 3:10pm 119 2 G 5 53° 96% - - 52° 54.5° 45.9° 0.28" 0.0" 1012.0
2/27 3:00pm 92 2 G 4 53° 96% - - 52° 54.5° 45.9° 0.28" 0.0" 1012.0
2/27 2:50pm 114 2 G 4 53° 96% - - 52° 54.5° 45.9° 0.28" 0.0" 1012.0
2/27 2:40pm 78 3 G 5 53° 96% - - 52° 54.5° 45.9° 0.28" 0.01" 1012.0
2/27 2:30pm 136 2 G 4 53° 97% - - 52° 54.5° 45.9° 0.27" 0.01" 1012.0
2/27 2:20pm 147 3 G 5 53° 97% - - 52° 54.5° 45.9° 0.26" 0.0" 1012.0
2/27 2:10pm 140 2 G 4 52° 97% - - 52° 54.5° 45.9° 0.26" 0.01" 1012.0
2/27 2:00pm 158 1 G 3 52° 96% - - 51° 54.5° 45.9° 0.25" 0.01" 1012.0
2/27 1:50pm 290 1 G 4 52° 96% - - 51° 54.5° 45.9° 0.24" 0.01" 1012.0
2/27 1:40pm 285 1 G 3 52° 96% - - 51° 54.5° 45.9° 0.23" 0.01" 1012.0
2/27 1:30pm 336 1 G 3 52° 95% - - 51° 54.5° 45.9° 0.22" 0.01" 1012.0
2/27 1:20pm 301 1 G 2 52° 95% - - 51° 54.5° 45.9° 0.21" 0.01" 1013.0
2/27 1:10pm 289 1 G 3 52° 95% - - 50° 54.5° 45.9° 0.2" 0.01" 1013.0
2/27 1:00pm 281 3 G 4 52° 94% - - 50° 54.5° 45.9° 0.19" 0.0" 1013.0
2/27 12:50pm 260 2 G 3 52° 93% - - 50° 54.5° 45.9° 0.19" 0.01" 1013.0
2/27 12:40pm 139 1 G 3 52° 94% - - 50° 54.5° 45.9° 0.18" 0.01" 1013.0
2/27 12:30pm 195 3 G 4 52° 94% - - 50° 54.5° 45.9° 0.17" 0.0" 1014.0
2/27 12:20pm 198 3 G 4 51° 93% - - 49° 54.5° 45.9° 0.17" 0.0" 1014.0
2/27 12:10pm 217 1 G 3 51° 93% - - 49° 54.5° 45.9° 0.17" 0.01" 1014.0
2/27 12:00pm 166 2 G 3 51° 93% - - 49° 54.5° 45.9° 0.16" 0.01" 1014.0
2/27 11:50am 170 1 G 3 51° 92% - - 49° 54.5° 45.9° 0.15" 0.0" 1014.0
2/27 11:40am 235 1 G 3 51° 92% - - 49° 54.5° 45.9° 0.15" 0.01" 1014.0
2/27 11:30am 186 1 G 2 51° 91% - - 49° 54.5° 45.9° 0.14" 0.0" 1014.0
2/27 11:20am 237 1 G 2 51° 92% - - 49° 54.5° 45.9° 0.14" 0.01" 1014.0
2/27 11:10am 225 0 G 2 51° 91% - - 49° 54.5° 45.9° 0.13" 0.01" 1014.0
2/27 11:00am 209 0 G 3 51° 92% - - 49° 54.5° 45.9° 0.12" 0.0" 1014.0
2/27 10:50am 320 1 G 3 51° 91% - - 48° 54.5° 45.9° 0.12" 0.01" 1014.0
2/27 10:40am 303 2 G 3 51° 90% - - 48° 54.5° 45.9° 0.11" 0.01" 1014.0
2/27 10:30am 306 2 G 3 51° 88% - - 47° 54.5° 45.9° 0.1" 0.0" 1014.0
2/27 10:20am 307 2 G 3 51° 87% - - 47° 54.5° 45.9° 0.1" 0.01" 1014.0
2/27 10:10am 284 1 G 4 51° 88% - - 48° 54.5° 45.9° 0.09" 0.03" 1014.0
2/27 10:00am 282 3 G 5 51° 89% - - 48° 54.5° 45.9° 0.06" 0.0" 1014.0
2/27 9:50am 344 3 G 5 51° 89% - - 48° 54.5° 45.9° 0.06" 0.0" 1014.0
2/27 9:40am 353 2 G 4 50° 88% - - 47° 54.5° 45.9° 0.06" 0.0" 1014.0
2/27 9:30am 352 3 G 4 50° 90% - - 47° 54.5° 45.9° 0.06" 0.01" 1014.0
2/27 9:20am 10 2 G 4 50° 88% - - 47° 54.5° 45.9° 0.05" 0.01" 1014.0
2/27 9:10am 331 3 G 4 51° 82% - - 45° 54.5° 45.9° 0.04" 0.03" 1015.0
2/27 9:00am 314 2 G 3 51° 78% - - 45° 54.5° 45.9° 0.01" 0.0" 1014.0
2/27 8:50am 322 1 G 2 51° 76% - - 44° 54.5° 45.9° 0.01" 0.0" 1014.0
2/27 8:40am 283 1 G 3 51° 77% - - 45° 54.5° 45.9° 0.01" 0.0" 1014.0
2/27 8:30am 294 2 G 4 51° 80% - - 46° 54.5° 45.9° 0.01" 0.0" 1014.0
2/27 8:20am 300 4 G 5 52° 77% - - 45° 54.5° 45.9° 0.01" 0.01" 1014.0
2/27 8:10am 284 3 G 5 52° 75% - - 44° 54.5° 45.9° 0.0" 0.0" 1014.0
2/27 8:00am 321 5 G 7 52° 76% - - 44° 54.5° 45.9° 0.0" 0.0" 1014.0
2/27 7:50am 336 4 G 7 51° 78% - - 44° 54.5° 45.9° 0.0" 0.0" 1014.0
2/27 7:40am 344 3 G 5 51° 79% - - 44° 54.5° 45.9° 0.0" 0.0" 1014.0
2/27 7:30am 319 2 G 4 50° 78% - - 43° 54.5° 45.9° 0.0" 0.0" 1014.0
2/27 7:20am 340 3 G 4 50° 74% - - 42° 54.5° 45.9° 0.0" 0.0" 1014.0
2/27 7:10am 337 3 G 4 50° 75% - - 42° 54.5° 45.9° 0.0" 0.0" 1014.0
2/27 7:00am 278 4 G 4 50° 73% - - 41° 54.5° 45.9° 0.0" 0.0" 1014.0
2/27 6:50am 273 4 G 5 49° 74% - - 42° 54.5° 45.9° 0.0" 0.0" 1014.0
2/27 6:40am 248 4 G 6 51° 64% - - 39° 54.5° 45.9° 0.0" 0.0" 1014.0
2/27 6:30am 194 3 G 4 52° 57% - - 37° 54.5° 45.9° 0.0" 0.0" 1013.0
2/27 6:20am 163 2 G 3 52° 53% - - 36° 54.5° 45.9° 0.0" 0.0" 1013.0
2/27 6:10am 182 2 G 5 53° 50% - - 35° 54.5° 45.9° 0.0" 0.0" 1013.0
2/27 6:00am 170 4 G 5 53° 48% - - 34° 54.5° 45.9° 0.0" 0.0" 1013.0
2/27 5:50am 134 3 G 4 54° 47% - - 34° 54.5° 45.9° 0.0" 0.0" 1013.0
2/27 5:40am 15 1 G 4 53° 49% - - 34° 54.5° 45.9° 0.0" 0.0" 1012.0
2/27 5:30am 291 0 G 1 54° 47% - - 34° 54.5° 45.9° 0.0" 0.0" 1012.0
2/27 5:20am 307 3 G 5 53° 48% - - 34° 54.5° 45.9° 0.0" 0.0" 1012.0
2/27 5:10am 156 2 G 5 54° 46% - - 34° 54.5° 45.9° 0.0" 0.0" 1012.0
2/27 5:00am 138 4 G 6 54° 46% - - 34° 54.5° 45.9° 0.0" 0.0" 1012.0
2/27 4:50am 231 4 G 8 54° 46% - - 34° 54.5° 45.9° 0.0" 0.0" 1012.0
2/27 4:40am 283 2 G 5 53° 48% - - 33° 54° 45.9° 0.0" 0.0" 1012.0
2/27 4:30am 161 4 G 7 52° 51% - - 34° 53.5° 45.9° 0.0" 0.0" 1012.0
2/27 4:20am 331 4 G 7 52° 50% - - 34° 53.5° 45.9° 0.0" 0.0" 1012.0
2/27 4:10am 306 5 G 7 51° 49% - - 33° 53.5° 45.9° 0.0" 0.0" 1012.0
2/27 4:00am 339 4 G 5 51° 48% - - 32° 53.5° 45.9° 0.0" 0.0" 1012.0
2/27 3:50am 359 4 G 6 51° 49% - - 33° 53.5° 45.9° 0.0" 0.0" 1012.0
2/27 3:40am 336 5 G 10 52° 47% - - 32° 53.5° 45.9° 0.0" 0.0" 1012.0
2/27 3:30am 313 4 G 10 50° 49% - - 32° 53.5° 45.9° 0.0" 0.0" 1013.0
2/27 3:20am 321 4 G 6 52° 45% - - 31° 53.5° 45.9° 0.0" 0.0" 1012.0
2/27 3:10am 351 5 G 6 49° 51% - - 32° 51.9° 45.9° 0.0" 0.0" 1012.0
2/27 3:00am 25 5 G 7 50° 49% - - 31° 51.9° 45.9° 0.0" 0.0" 1012.0
2/27 2:50am 9 2 G 5 50° 49% - - 31° 51.9° 45.9° 0.0" 0.0" 1013.0
2/27 2:40am 330 1 G 3 49° 52% - - 32° 51.9° 45.9° 0.0" 0.0" 1013.0
2/27 2:30am 248 1 G 3 49° 50% - - 31° 51.9° 45.9° 0.0" 0.0" 1013.0
2/27 2:20am 258 3 G 5 48° 53% - - 32° 51.9° 45.9° 0.0" 0.0" 1013.0
2/27 2:10am 311 3 G 6 48° 53% - - 32° 51.9° 45.9° 0.0" 0.0" 1013.0
2/27 2:00am 329 2 G 4 48° 55% - - 32° 51.9° 45.9° 0.0" 0.0" 1013.0
2/27 1:50am 335 3 G 6 47° 56% - - 32° 51.9° 45.9° 0.0" 0.0" 1013.0
2/27 1:40am 294 3 G 7 49° 49% - - 31° 51.9° 45.9° 0.0" 0.0" 1013.0
2/27 1:30am 281 1 G 3 48° 53% - - 31° 51.9° 46.5° 0.0" 0.0" 1013.0
2/27 1:20am 302 3 G 7 48° 51% - - 31° 51.9° 46.5° 0.0" 0.0" 1013.0
2/27 1:10am 234 3 G 7 49° 50% - - 31° 51.9° 46.5° 0.0" 0.0" 1014.0
2/27 1:00am 172 5 G 8 49° 51% - - 31° 51.9° 46.5° 0.0" 0.0" 1014.0
2/27 12:50am 246 3 G 7 48° 53% - - 32° 51.9° 46.8° 0.0" 0.0" 1014.0
2/27 12:40am 294 3 G 6 49° 50% - - 31° 51.9° 47.4° 0.0" 0.0" 1014.0
2/27 12:30am 347 3 G 6 50° 45% - - 30° 51.9° 48.8° 0.0" 0.0" 1014.0
2/27 12:20am 26 6 G 12 51° 44% - - 30° 51.9° 49.7° 0.0" 0.0" 1014.0
2/27 12:10am 37 5 G 10 51° 46% - - 31° 51.4° 49.7° 0.0" 0.0" 1014.0
2/27 12:00am 17 6 G 13 52° 44% - - 31° 63.9° 46° 0.0" 0.0" 1014.0
2/26 11:50pm 30 6 G 11 52° 44% - - 31° 63.9° 46° 0.0" 0.0" 1014.0
2/26 11:40pm 340 4 G 8 50° 49% - - 32° 63.9° 46° 0.0" 0.0" 1014.0
2/26 11:30pm 5 7 G 12 52° 46% - - 32° 63.9° 46° 0.0" 0.0" 1014.0
2/26 11:20pm 355 8 G 12 52° 46% - - 32° 63.9° 46° 0.0" 0.0" 1014.0
2/26 11:10pm 3 9 G 13 52° 46% - - 32° 63.9° 46° 0.0" 0.0" 1014.0
2/26 11:00pm 2 7 G 11 52° 48% - - 33° 63.9° 46° 0.0" 0.0" 1014.0
2/26 10:50pm 357 9 G 13 52° 49% - - 33° 63.9° 46° 0.0" 0.0" 1014.0
2/26 10:40pm 3 9 G 18 52° 50% - - 34° 63.9° 46° 0.0" 0.0" 1014.0
2/26 10:30pm 359 10 G 15 52° 49% - - 34° 63.9° 46° 0.0" 0.0" 1014.0
2/26 10:20pm 15 7 G 13 52° 47% - - 33° 63.9° 46° 0.0" 0.0" 1014.0
2/26 10:10pm 41 4 G 8 52° 48% - - 32° 63.9° 46° 0.0" 0.0" 1014.0
2/26 10:00pm 13 3 G 7 53° 46% - - 32° 63.9° 46° 0.0" 0.0" 1014.0
2/26 9:50pm 41 4 G 8 52° 47% - - 33° 63.9° 46° 0.0" 0.0" 1015.0
2/26 9:40pm 77 2 G 5 53° 46% - - 33° 63.9° 46° 0.0" 0.0" 1015.0
2/26 9:30pm 76 3 G 7 54° 45% - - 33° 63.9° 46° 0.0" 0.0" 1015.0
2/26 9:20pm 50 5 G 13 54° 46% - - 33° 63.9° 46° 0.0" 0.0" 1015.0
2/26 9:10pm 86 7 G 8 54° 45% - - 33° 63.9° 46° 0.0" 0.0" 1014.0
2/26 9:00pm 38 5 G 9 54° 46% - - 34° 63.9° 46° 0.0" 0.0" 1015.0
2/26 8:50pm 92 5 G 9 54° 45% - - 34° 63.9° 46° 0.0" 0.0" 1015.0
2/26 8:40pm 143 5 G 7 55° 44% - - 33° 63.9° 46° 0.0" 0.0" 1015.0
2/26 8:30pm 217 2 G 4 55° 44% - - 33° 63.9° 46° 0.0" 0.0" 1015.0
2/26 8:20pm 272 3 G 5 56° 42% - - 33° 63.9° 46° 0.0" 0.0" 1015.0
2/26 8:10pm 238 5 G 9 55° 43% - - 33° 63.9° 46° 0.0" 0.0" 1015.0
2/26 8:00pm 259 6 G 15 54° 46% - - 34° 63.9° 46° 0.0" 0.0" 1015.0
2/26 7:50pm 264 3 G 5 55° 46% - - 34° 63.9° 46° 0.0" 0.0" 1015.0
2/26 7:40pm 343 1 G 3 55° 46% - - 34° 63.9° 46° 0.0" 0.0" 1014.0
2/26 7:30pm 250 2 G 3 56° 45% - - 34° 63.9° 46° 0.0" 0.0" 1014.0
2/26 7:20pm 255 4 G 6 55° 46% - - 35° 63.9° 46° 0.0" 0.0" 1014.0
2/26 7:10pm 258 4 G 7 56° 44% - - 35° 63.9° 46° 0.0" 0.0" 1014.0
2/26 7:00pm 264 4 G 9 56° 44% - - 35° 63.9° 46° 0.0" 0.0" 1014.0
2/26 6:50pm 253 6 G 12 57° 42% - - 34° 63.9° 46° 0.0" 0.0" 1014.0
2/26 6:40pm 288 10 G 17 57° 42% - - 34° 63.9° 46° 0.0" 0.0" 1014.0
2/26 6:30pm 269 6 G 16 57° 44% - - 35° 63.9° 46° 0.0" 0.0" 1014.0
2/26 6:20pm 242 7 G 18 57° 44% - - 35° 63.9° 46° 0.0" 0.0" 1014.0
2/26 6:10pm 255 5 G 12 57° 44% - - 36° 63.9° 46° 0.0" 0.0" 1014.0
2/26 6:00pm 277 4 G 8 57° 45% - - 36° 63.9° 46° 0.0" 0.0" 1014.0
2/26 5:50pm 241 6 G 11 58° 44% - - 36° 63.9° 46° 0.0" 0.0" 1014.0
2/26 5:40pm 263 7 G 11 57° 44% - - 36° 63.9° 46° 0.0" 0.0" 1014.0
2/26 5:30pm 252 6 G 12 58° 43% - - 36° 63.9° 46° 0.0" 0.0" 1014.0
2/26 5:20pm 257 8 G 14 58° 43% - - 36° 63.9° 46° 0.0" 0.0" 1014.0
2/26 5:10pm 260 8 G 15 59° 43% - - 36° 63.9° 46° 0.0" 0.0" 1014.0
2/26 5:00pm 251 10 G 16 59° 42% - - 36° 63.9° 46° 0.0" 0.0" 1014.0